sensor_id;sensor_type;location;lat;lon;timestamp;P1;durP1;ratioP1;P2;durP2;ratioP2
22129;SDS011;11231;50.746;4.272;2023-05-29T00:00:39;17.67;;;7.63;;
22129;SDS011;11231;50.746;4.272;2023-05-29T00:03:05;20.03;;;7.83;;
22129;SDS011;11231;50.746;4.272;2023-05-29T00:05:31;17.20;;;7.93;;
22129;SDS011;11231;50.746;4.272;2023-05-29T00:07:56;22.87;;;7.93;;
22129;SDS011;11231;50.746;4.272;2023-05-29T00:10:22;22.13;;;8.27;;
22129;SDS011;11231;50.746;4.272;2023-05-29T00:12:48;19.33;;;7.50;;
22129;SDS011;11231;50.746;4.272;2023-05-29T00:15:13;18.40;;;8.10;;
22129;SDS011;11231;50.746;4.272;2023-05-29T00:17:39;19.17;;;7.53;;
22129;SDS011;11231;50.746;4.272;2023-05-29T00:20:05;15.77;;;7.90;;
22129;SDS011;11231;50.746;4.272;2023-05-29T00:22:34;18.53;;;8.63;;
22129;SDS011;11231;50.746;4.272;2023-05-29T00:25:03;23.10;;;8.97;;
22129;SDS011;11231;50.746;4.272;2023-05-29T00:27:30;19.17;;;8.53;;
22129;SDS011;11231;50.746;4.272;2023-05-29T00:29:58;17.57;;;8.37;;
22129;SDS011;11231;50.746;4.272;2023-05-29T00:32:24;17.97;;;8.37;;
22129;SDS011;11231;50.746;4.272;2023-05-29T00:34:50;17.97;;;8.27;;
22129;SDS011;11231;50.746;4.272;2023-05-29T00:37:16;20.10;;;8.93;;
22129;SDS011;11231;50.746;4.272;2023-05-29T00:39:42;24.90;;;9.10;;
22129;SDS011;11231;50.746;4.272;2023-05-29T00:42:08;16.50;;;8.90;;
22129;SDS011;11231;50.746;4.272;2023-05-29T00:44:34;18.63;;;8.00;;
22129;SDS011;11231;50.746;4.272;2023-05-29T00:47:00;21.83;;;9.20;;
22129;SDS011;11231;50.746;4.272;2023-05-29T00:49:26;21.20;;;9.80;;
22129;SDS011;11231;50.746;4.272;2023-05-29T00:51:52;18.50;;;9.17;;
22129;SDS011;11231;50.746;4.272;2023-05-29T00:54:25;20.57;;;10.17;;
22129;SDS011;11231;50.746;4.272;2023-05-29T00:56:53;19.33;;;9.17;;
22129;SDS011;11231;50.746;4.272;2023-05-29T00:59:21;23.37;;;10.13;;
22129;SDS011;11231;50.746;4.272;2023-05-29T01:01:50;19.83;;;8.97;;
22129;SDS011;11231;50.746;4.272;2023-05-29T01:04:17;19.87;;;9.70;;
22129;SDS011;11231;50.746;4.272;2023-05-29T01:06:43;18.23;;;9.10;;
22129;SDS011;11231;50.746;4.272;2023-05-29T01:09:09;20.93;;;9.67;;
22129;SDS011;11231;50.746;4.272;2023-05-29T01:14:45;18.87;;;9.27;;
22129;SDS011;11231;50.746;4.272;2023-05-29T01:17:17;19.43;;;8.87;;
22129;SDS011;11231;50.746;4.272;2023-05-29T01:20:02;23.53;;;9.57;;
22129;SDS011;11231;50.746;4.272;2023-05-29T01:23:07;18.80;;;9.30;;
22129;SDS011;11231;50.746;4.272;2023-05-29T01:25:46;19.03;;;9.67;;
22129;SDS011;11231;50.746;4.272;2023-05-29T01:28:15;21.30;;;9.50;;
22129;SDS011;11231;50.746;4.272;2023-05-29T01:30:45;20.20;;;9.23;;
22129;SDS011;11231;50.746;4.272;2023-05-29T01:33:12;19.13;;;9.20;;
22129;SDS011;11231;50.746;4.272;2023-05-29T01:35:37;22.17;;;9.70;;
22129;SDS011;11231;50.746;4.272;2023-05-29T01:38:03;19.43;;;9.63;;
22129;SDS011;11231;50.746;4.272;2023-05-29T01:40:29;22.00;;;9.97;;
22129;SDS011;11231;50.746;4.272;2023-05-29T01:42:55;21.47;;;9.77;;
22129;SDS011;11231;50.746;4.272;2023-05-29T01:45:21;21.53;;;9.37;;
22129;SDS011;11231;50.746;4.272;2023-05-29T01:47:47;21.20;;;9.17;;
22129;SDS011;11231;50.746;4.272;2023-05-29T01:50:15;19.33;;;9.63;;
22129;SDS011;11231;50.746;4.272;2023-05-29T01:52:43;20.93;;;9.07;;
22129;SDS011;11231;50.746;4.272;2023-05-29T01:55:09;20.50;;;9.90;;
22129;SDS011;11231;50.746;4.272;2023-05-29T01:57:35;23.23;;;10.47;;
22129;SDS011;11231;50.746;4.272;2023-05-29T02:00:04;24.20;;;9.53;;
22129;SDS011;11231;50.746;4.272;2023-05-29T02:02:39;23.53;;;11.00;;
22129;SDS011;11231;50.746;4.272;2023-05-29T02:05:06;19.67;;;10.00;;
22129;SDS011;11231;50.746;4.272;2023-05-29T02:07:33;21.23;;;10.50;;
22129;SDS011;11231;50.746;4.272;2023-05-29T02:10:02;23.47;;;10.17;;
22129;SDS011;11231;50.746;4.272;2023-05-29T02:12:29;21.07;;;10.17;;
22129;SDS011;11231;50.746;4.272;2023-05-29T02:14:54;21.70;;;10.03;;
22129;SDS011;11231;50.746;4.272;2023-05-29T02:17:22;24.53;;;11.10;;
22129;SDS011;11231;50.746;4.272;2023-05-29T02:19:48;22.47;;;10.20;;
22129;SDS011;11231;50.746;4.272;2023-05-29T02:22:13;21.73;;;9.97;;
22129;SDS011;11231;50.746;4.272;2023-05-29T02:24:39;22.23;;;9.87;;
22129;SDS011;11231;50.746;4.272;2023-05-29T02:27:06;20.80;;;10.67;;
22129;SDS011;11231;50.746;4.272;2023-05-29T02:29:36;19.63;;;10.33;;
22129;SDS011;11231;50.746;4.272;2023-05-29T02:32:01;18.80;;;10.30;;
22129;SDS011;11231;50.746;4.272;2023-05-29T02:34:27;20.07;;;10.07;;
22129;SDS011;11231;50.746;4.272;2023-05-29T02:36:54;21.10;;;9.87;;
22129;SDS011;11231;50.746;4.272;2023-05-29T02:39:20;19.27;;;8.87;;
22129;SDS011;11231;50.746;4.272;2023-05-29T02:41:45;23.90;;;9.90;;
22129;SDS011;11231;50.746;4.272;2023-05-29T02:44:12;22.63;;;10.40;;
22129;SDS011;11231;50.746;4.272;2023-05-29T02:46:38;19.37;;;10.10;;
22129;SDS011;11231;50.746;4.272;2023-05-29T02:49:03;23.43;;;9.87;;
22129;SDS011;11231;50.746;4.272;2023-05-29T02:51:29;18.57;;;9.40;;
22129;SDS011;11231;50.746;4.272;2023-05-29T02:53:57;21.20;;;9.73;;
22129;SDS011;11231;50.746;4.272;2023-05-29T02:56:24;24.33;;;9.70;;
22129;SDS011;11231;50.746;4.272;2023-05-29T02:58:50;19.00;;;8.50;;
22129;SDS011;11231;50.746;4.272;2023-05-29T03:01:16;25.77;;;8.80;;
22129;SDS011;11231;50.746;4.272;2023-05-29T03:03:42;17.97;;;8.83;;
22129;SDS011;11231;50.746;4.272;2023-05-29T03:06:08;20.77;;;8.73;;
22129;SDS011;11231;50.746;4.272;2023-05-29T03:08:35;21.53;;;8.67;;
22129;SDS011;11231;50.746;4.272;2023-05-29T03:11:09;24.00;;;8.60;;
22129;SDS011;11231;50.746;4.272;2023-05-29T03:13:37;22.67;;;8.03;;
22129;SDS011;11231;50.746;4.272;2023-05-29T03:16:06;25.07;;;8.90;;
22129;SDS011;11231;50.746;4.272;2023-05-29T03:18:34;21.60;;;9.10;;
22129;SDS011;11231;50.746;4.272;2023-05-29T03:21:00;17.33;;;7.17;;
22129;SDS011;11231;50.746;4.272;2023-05-29T03:23:27;20.10;;;7.67;;
22129;SDS011;11231;50.746;4.272;2023-05-29T03:25:53;25.37;;;7.73;;
22129;SDS011;11231;50.746;4.272;2023-05-29T03:28:19;18.17;;;6.37;;
22129;SDS011;11231;50.746;4.272;2023-05-29T03:30:46;20.77;;;6.40;;
22129;SDS011;11231;50.746;4.272;2023-05-29T03:33:15;19.07;;;6.60;;
22129;SDS011;11231;50.746;4.272;2023-05-29T03:35:56;15.73;;;6.40;;
22129;SDS011;11231;50.746;4.272;2023-05-29T03:38:22;20.13;;;5.73;;
22129;SDS011;11231;50.746;4.272;2023-05-29T03:40:48;19.80;;;5.40;;
22129;SDS011;11231;50.746;4.272;2023-05-29T03:43:14;19.43;;;5.43;;
22129;SDS011;11231;50.746;4.272;2023-05-29T03:45:41;14.47;;;5.33;;
22129;SDS011;11231;50.746;4.272;2023-05-29T03:48:07;22.00;;;5.70;;
22129;SDS011;11231;50.746;4.272;2023-05-29T03:50:32;20.37;;;5.50;;
22129;SDS011;11231;50.746;4.272;2023-05-29T03:52:58;19.07;;;4.93;;
22129;SDS011;11231;50.746;4.272;2023-05-29T03:55:25;17.70;;;4.90;;
22129;SDS011;11231;50.746;4.272;2023-05-29T03:57:52;16.40;;;4.80;;
22129;SDS011;11231;50.746;4.272;2023-05-29T04:00:18;20.17;;;4.70;;
22129;SDS011;11231;50.746;4.272;2023-05-29T04:02:47;15.33;;;4.50;;
22129;SDS011;11231;50.746;4.272;2023-05-29T04:05:13;19.00;;;4.93;;
22129;SDS011;11231;50.746;4.272;2023-05-29T04:07:39;18.37;;;4.47;;
22129;SDS011;11231;50.746;4.272;2023-05-29T04:10:07;20.20;;;4.60;;
22129;SDS011;11231;50.746;4.272;2023-05-29T04:12:33;19.10;;;4.27;;
22129;SDS011;11231;50.746;4.272;2023-05-29T04:14:59;15.20;;;4.87;;
22129;SDS011;11231;50.746;4.272;2023-05-29T04:17:25;19.47;;;4.47;;
22129;SDS011;11231;50.746;4.272;2023-05-29T04:19:51;11.70;;;3.33;;
22129;SDS011;11231;50.746;4.272;2023-05-29T04:22:17;20.13;;;4.10;;
22129;SDS011;11231;50.746;4.272;2023-05-29T04:24:44;12.67;;;3.00;;
22129;SDS011;11231;50.746;4.272;2023-05-29T04:27:11;14.47;;;3.50;;
22129;SDS011;11231;50.746;4.272;2023-05-29T04:29:39;16.70;;;3.80;;
22129;SDS011;11231;50.746;4.272;2023-05-29T04:32:07;19.10;;;3.23;;
22129;SDS011;11231;50.746;4.272;2023-05-29T04:34:37;19.40;;;3.67;;
22129;SDS011;11231;50.746;4.272;2023-05-29T04:37:12;14.67;;;2.90;;
22129;SDS011;11231;50.746;4.272;2023-05-29T04:39:39;13.57;;;3.57;;
22129;SDS011;11231;50.746;4.272;2023-05-29T04:42:06;16.77;;;3.00;;
22129;SDS011;11231;50.746;4.272;2023-05-29T04:44:33;17.00;;;3.27;;
22129;SDS011;11231;50.746;4.272;2023-05-29T04:46:59;17.93;;;3.50;;
22129;SDS011;11231;50.746;4.272;2023-05-29T04:49:28;17.20;;;3.40;;
22129;SDS011;11231;50.746;4.272;2023-05-29T04:51:54;13.77;;;3.10;;
22129;SDS011;11231;50.746;4.272;2023-05-29T04:54:21;14.83;;;3.40;;
22129;SDS011;11231;50.746;4.272;2023-05-29T04:56:51;13.67;;;3.00;;
22129;SDS011;11231;50.746;4.272;2023-05-29T04:59:18;18.07;;;3.70;;
22129;SDS011;11231;50.746;4.272;2023-05-29T05:01:44;16.40;;;3.30;;
22129;SDS011;11231;50.746;4.272;2023-05-29T05:04:12;14.77;;;3.50;;
22129;SDS011;11231;50.746;4.272;2023-05-29T05:06:38;12.77;;;2.90;;
22129;SDS011;11231;50.746;4.272;2023-05-29T05:09:05;18.73;;;3.83;;
22129;SDS011;11231;50.746;4.272;2023-05-29T05:11:30;17.33;;;3.47;;
22129;SDS011;11231;50.746;4.272;2023-05-29T05:13:57;17.40;;;3.27;;
22129;SDS011;11231;50.746;4.272;2023-05-29T05:16:22;12.83;;;2.90;;
22129;SDS011;11231;50.746;4.272;2023-05-29T05:18:48;14.90;;;3.00;;
22129;SDS011;11231;50.746;4.272;2023-05-29T05:21:15;14.27;;;3.23;;
22129;SDS011;11231;50.746;4.272;2023-05-29T05:23:40;11.47;;;3.20;;
22129;SDS011;11231;50.746;4.272;2023-05-29T05:26:08;18.50;;;3.47;;
22129;SDS011;11231;50.746;4.272;2023-05-29T05:28:35;16.93;;;3.03;;
22129;SDS011;11231;50.746;4.272;2023-05-29T05:31:03;16.70;;;3.47;;
22129;SDS011;11231;50.746;4.272;2023-05-29T05:33:31;13.70;;;3.10;;
22129;SDS011;11231;50.746;4.272;2023-05-29T05:35:57;16.10;;;3.67;;
22129;SDS011;11231;50.746;4.272;2023-05-29T05:38:24;17.43;;;3.37;;
22129;SDS011;11231;50.746;4.272;2023-05-29T05:40:50;15.37;;;3.33;;
22129;SDS011;11231;50.746;4.272;2023-05-29T05:43:22;12.60;;;2.57;;
22129;SDS011;11231;50.746;4.272;2023-05-29T05:46:06;15.23;;;2.90;;
22129;SDS011;11231;50.746;4.272;2023-05-29T05:48:34;15.10;;;3.27;;
22129;SDS011;11231;50.746;4.272;2023-05-29T05:51:01;18.90;;;3.10;;
22129;SDS011;11231;50.746;4.272;2023-05-29T05:53:26;14.30;;;3.27;;
22129;SDS011;11231;50.746;4.272;2023-05-29T05:55:52;14.93;;;3.33;;
22129;SDS011;11231;50.746;4.272;2023-05-29T05:58:19;12.07;;;3.13;;
22129;SDS011;11231;50.746;4.272;2023-05-29T06:00:44;14.77;;;2.70;;
22129;SDS011;11231;50.746;4.272;2023-05-29T06:03:11;16.63;;;3.27;;
22129;SDS011;11231;50.746;4.272;2023-05-29T06:05:57;15.67;;;2.97;;
22129;SDS011;11231;50.746;4.272;2023-05-29T06:08:23;16.10;;;3.07;;
22129;SDS011;11231;50.746;4.272;2023-05-29T06:10:50;15.70;;;2.60;;
22129;SDS011;11231;50.746;4.272;2023-05-29T06:13:16;13.23;;;3.00;;
22129;SDS011;11231;50.746;4.272;2023-05-29T06:15:49;15.47;;;3.07;;
22129;SDS011;11231;50.746;4.272;2023-05-29T06:18:15;14.10;;;2.93;;
22129;SDS011;11231;50.746;4.272;2023-05-29T06:20:41;17.60;;;3.13;;
22129;SDS011;11231;50.746;4.272;2023-05-29T06:23:07;16.07;;;3.37;;
22129;SDS011;11231;50.746;4.272;2023-05-29T06:25:35;14.60;;;2.90;;
22129;SDS011;11231;50.746;4.272;2023-05-29T06:28:00;14.63;;;3.30;;
22129;SDS011;11231;50.746;4.272;2023-05-29T06:30:27;15.23;;;3.13;;
22129;SDS011;11231;50.746;4.272;2023-05-29T06:32:53;14.17;;;3.20;;
22129;SDS011;11231;50.746;4.272;2023-05-29T06:35:25;16.77;;;2.90;;
22129;SDS011;11231;50.746;4.272;2023-05-29T06:37:51;16.13;;;3.13;;
22129;SDS011;11231;50.746;4.272;2023-05-29T06:40:16;15.87;;;3.37;;
22129;SDS011;11231;50.746;4.272;2023-05-29T06:42:43;15.60;;;3.30;;
22129;SDS011;11231;50.746;4.272;2023-05-29T06:45:13;18.77;;;3.60;;
22129;SDS011;11231;50.746;4.272;2023-05-29T06:47:40;14.10;;;3.50;;
22129;SDS011;11231;50.746;4.272;2023-05-29T06:50:07;11.67;;;2.70;;
22129;SDS011;11231;50.746;4.272;2023-05-29T06:52:35;13.33;;;3.17;;
22129;SDS011;11231;50.746;4.272;2023-05-29T06:55:22;14.53;;;3.17;;
22129;SDS011;11231;50.746;4.272;2023-05-29T06:57:47;16.27;;;2.80;;
22129;SDS011;11231;50.746;4.272;2023-05-29T07:00:14;13.80;;;3.33;;
22129;SDS011;11231;50.746;4.272;2023-05-29T07:02:48;19.33;;;3.47;;
22129;SDS011;11231;50.746;4.272;2023-05-29T07:05:13;16.57;;;3.23;;
22129;SDS011;11231;50.746;4.272;2023-05-29T07:07:40;15.17;;;3.47;;
22129;SDS011;11231;50.746;4.272;2023-05-29T07:10:08;14.80;;;3.13;;
22129;SDS011;11231;50.746;4.272;2023-05-29T07:12:34;14.43;;;3.27;;
22129;SDS011;11231;50.746;4.272;2023-05-29T07:15:00;15.60;;;3.53;;
22129;SDS011;11231;50.746;4.272;2023-05-29T07:17:26;14.80;;;3.50;;
22129;SDS011;11231;50.746;4.272;2023-05-29T07:20:02;21.27;;;3.33;;
22129;SDS011;11231;50.746;4.272;2023-05-29T07:22:33;16.90;;;3.40;;
22129;SDS011;11231;50.746;4.272;2023-05-29T07:25:00;16.40;;;3.47;;
22129;SDS011;11231;50.746;4.272;2023-05-29T07:27:26;13.20;;;3.30;;
22129;SDS011;11231;50.746;4.272;2023-05-29T07:29:53;12.50;;;3.43;;
22129;SDS011;11231;50.746;4.272;2023-05-29T07:32:18;17.03;;;3.37;;
22129;SDS011;11231;50.746;4.272;2023-05-29T07:34:44;14.87;;;3.67;;
22129;SDS011;11231;50.746;4.272;2023-05-29T07:37:10;14.57;;;3.17;;
22129;SDS011;11231;50.746;4.272;2023-05-29T07:39:38;15.10;;;3.40;;
22129;SDS011;11231;50.746;4.272;2023-05-29T07:42:16;15.00;;;3.83;;
22129;SDS011;11231;50.746;4.272;2023-05-29T07:44:42;15.67;;;3.33;;
22129;SDS011;11231;50.746;4.272;2023-05-29T07:47:08;17.47;;;3.50;;
22129;SDS011;11231;50.746;4.272;2023-05-29T07:49:39;17.03;;;3.50;;
22129;SDS011;11231;50.746;4.272;2023-05-29T07:52:06;14.60;;;3.20;;
22129;SDS011;11231;50.746;4.272;2023-05-29T07:54:32;17.30;;;3.63;;
22129;SDS011;11231;50.746;4.272;2023-05-29T07:57:00;18.47;;;5.83;;
22129;SDS011;11231;50.746;4.272;2023-05-29T07:59:27;14.37;;;3.40;;
22129;SDS011;11231;50.746;4.272;2023-05-29T08:01:57;15.67;;;3.30;;
22129;SDS011;11231;50.746;4.272;2023-05-29T08:04:41;15.87;;;3.33;;
22129;SDS011;11231;50.746;4.272;2023-05-29T08:07:07;14.13;;;3.13;;
22129;SDS011;11231;50.746;4.272;2023-05-29T08:09:34;13.53;;;2.90;;
22129;SDS011;11231;50.746;4.272;2023-05-29T08:12:01;15.93;;;3.13;;
22129;SDS011;11231;50.746;4.272;2023-05-29T08:14:27;15.30;;;3.20;;
22129;SDS011;11231;50.746;4.272;2023-05-29T08:16:54;14.47;;;3.13;;
22129;SDS011;11231;50.746;4.272;2023-05-29T08:19:20;15.33;;;3.70;;
22129;SDS011;11231;50.746;4.272;2023-05-29T08:21:46;16.40;;;3.40;;
22129;SDS011;11231;50.746;4.272;2023-05-29T08:24:12;16.80;;;2.97;;
22129;SDS011;11231;50.746;4.272;2023-05-29T08:26:39;15.10;;;3.10;;
22129;SDS011;11231;50.746;4.272;2023-05-29T08:29:04;13.17;;;2.83;;
22129;SDS011;11231;50.746;4.272;2023-05-29T08:31:30;11.77;;;3.03;;
22129;SDS011;11231;50.746;4.272;2023-05-29T08:33:56;16.55;;;3.30;;
22129;SDS011;11231;50.746;4.272;2023-05-29T08:36:24;12.35;;;2.88;;
22129;SDS011;11231;50.746;4.272;2023-05-29T08:38:50;14.55;;;3.35;;
22129;SDS011;11231;50.746;4.272;2023-05-29T08:41:17;13.32;;;3.00;;
22129;SDS011;11231;50.746;4.272;2023-05-29T08:43:51;12.27;;;3.05;;
22129;SDS011;11231;50.746;4.272;2023-05-29T08:46:18;15.80;;;3.10;;
22129;SDS011;11231;50.746;4.272;2023-05-29T08:48:47;13.02;;;3.40;;
22129;SDS011;11231;50.746;4.272;2023-05-29T08:51:16;11.68;;;2.97;;
22129;SDS011;11231;50.746;4.272;2023-05-29T08:53:46;13.48;;;2.78;;
22129;SDS011;11231;50.746;4.272;2023-05-29T08:56:12;13.13;;;3.13;;
22129;SDS011;11231;50.746;4.272;2023-05-29T08:58:37;11.05;;;2.78;;
22129;SDS011;11231;50.746;4.272;2023-05-29T09:01:03;12.63;;;3.08;;
22129;SDS011;11231;50.746;4.272;2023-05-29T09:03:29;15.00;;;3.15;;
22129;SDS011;11231;50.746;4.272;2023-05-29T09:06:00;12.07;;;3.03;;
22129;SDS011;11231;50.746;4.272;2023-05-29T09:08:28;14.68;;;3.42;;
22129;SDS011;11231;50.746;4.272;2023-05-29T09:10:55;12.30;;;3.03;;
22129;SDS011;11231;50.746;4.272;2023-05-29T09:13:22;12.43;;;2.92;;
22129;SDS011;11231;50.746;4.272;2023-05-29T09:15:48;16.35;;;3.55;;
22129;SDS011;11231;50.746;4.272;2023-05-29T09:18:16;13.45;;;3.03;;
22129;SDS011;11231;50.746;4.272;2023-05-29T09:20:42;12.85;;;3.30;;
22129;SDS011;11231;50.746;4.272;2023-05-29T09:23:08;13.80;;;3.13;;
22129;SDS011;11231;50.746;4.272;2023-05-29T09:25:35;14.18;;;3.45;;
22129;SDS011;11231;50.746;4.272;2023-05-29T09:28:07;13.85;;;3.50;;
22129;SDS011;11231;50.746;4.272;2023-05-29T09:32:59;11.82;;;2.90;;
22129;SDS011;11231;50.746;4.272;2023-05-29T09:35:31;15.65;;;3.50;;
22129;SDS011;11231;50.746;4.272;2023-05-29T09:38:08;13.68;;;2.88;;
22129;SDS011;11231;50.746;4.272;2023-05-29T09:40:38;14.73;;;3.10;;
22129;SDS011;11231;50.746;4.272;2023-05-29T09:45:39;13.90;;;3.00;;
22129;SDS011;11231;50.746;4.272;2023-05-29T09:48:06;16.17;;;3.33;;
22129;SDS011;11231;50.746;4.272;2023-05-29T09:50:33;13.05;;;3.40;;
22129;SDS011;11231;50.746;4.272;2023-05-29T09:53:00;16.10;;;3.45;;
22129;SDS011;11231;50.746;4.272;2023-05-29T09:55:26;16.90;;;3.20;;
22129;SDS011;11231;50.746;4.272;2023-05-29T09:57:54;13.30;;;3.40;;
22129;SDS011;11231;50.746;4.272;2023-05-29T10:00:20;15.90;;;3.85;;
22129;SDS011;11231;50.746;4.272;2023-05-29T10:02:49;13.93;;;3.28;;
22129;SDS011;11231;50.746;4.272;2023-05-29T10:05:15;13.63;;;3.08;;
22129;SDS011;11231;50.746;4.272;2023-05-29T10:07:45;12.10;;;3.15;;
22129;SDS011;11231;50.746;4.272;2023-05-29T10:10:14;15.18;;;3.20;;
22129;SDS011;11231;50.746;4.272;2023-05-29T10:12:47;13.73;;;3.20;;
22129;SDS011;11231;50.746;4.272;2023-05-29T10:15:14;12.68;;;3.25;;
22129;SDS011;11231;50.746;4.272;2023-05-29T10:17:47;14.88;;;3.22;;
22129;SDS011;11231;50.746;4.272;2023-05-29T10:20:17;16.48;;;3.65;;
22129;SDS011;11231;50.746;4.272;2023-05-29T10:22:50;17.02;;;3.50;;
22129;SDS011;11231;50.746;4.272;2023-05-29T10:25:20;14.07;;;2.92;;
22129;SDS011;11231;50.746;4.272;2023-05-29T10:27:49;14.90;;;3.22;;
22129;SDS011;11231;50.746;4.272;2023-05-29T10:30:23;12.10;;;2.90;;
22129;SDS011;11231;50.746;4.272;2023-05-29T10:35:47;14.98;;;3.45;;
22129;SDS011;11231;50.746;4.272;2023-05-29T10:38:17;12.75;;;2.97;;
22129;SDS011;11231;50.746;4.272;2023-05-29T10:40:44;13.27;;;3.30;;
22129;SDS011;11231;50.746;4.272;2023-05-29T10:43:32;16.27;;;3.33;;
22129;SDS011;11231;50.746;4.272;2023-05-29T10:45:59;12.05;;;3.15;;
22129;SDS011;11231;50.746;4.272;2023-05-29T10:50:55;13.88;;;3.05;;
22129;SDS011;11231;50.746;4.272;2023-05-29T10:53:30;12.48;;;3.38;;
22129;SDS011;11231;50.746;4.272;2023-05-29T10:55:58;14.63;;;3.63;;
22129;SDS011;11231;50.746;4.272;2023-05-29T10:58:26;13.18;;;3.50;;
22129;SDS011;11231;50.746;4.272;2023-05-29T11:00:53;14.95;;;3.28;;
22129;SDS011;11231;50.746;4.272;2023-05-29T11:03:22;12.57;;;2.95;;
22129;SDS011;11231;50.746;4.272;2023-05-29T11:05:55;16.67;;;3.50;;
22129;SDS011;11231;50.746;4.272;2023-05-29T11:11:11;19.17;;;3.38;;
22129;SDS011;11231;50.746;4.272;2023-05-29T11:13:39;11.57;;;3.10;;
22129;SDS011;11231;50.746;4.272;2023-05-29T11:16:09;15.45;;;3.15;;
22129;SDS011;11231;50.746;4.272;2023-05-29T11:18:42;14.32;;;3.35;;
22129;SDS011;11231;50.746;4.272;2023-05-29T11:21:34;11.98;;;3.30;;
22129;SDS011;11231;50.746;4.272;2023-05-29T11:24:23;11.18;;;3.03;;
22129;SDS011;11231;50.746;4.272;2023-05-29T11:26:55;12.80;;;3.25;;
22129;SDS011;11231;50.746;4.272;2023-05-29T11:29:27;12.10;;;2.92;;
22129;SDS011;11231;50.746;4.272;2023-05-29T11:31:55;13.40;;;3.25;;
22129;SDS011;11231;50.746;4.272;2023-05-29T11:34:25;18.70;;;5.75;;
22129;SDS011;11231;50.746;4.272;2023-05-29T11:36:54;20.50;;;4.05;;
22129;SDS011;11231;50.746;4.272;2023-05-29T11:39:21;12.88;;;3.50;;
22129;SDS011;11231;50.746;4.272;2023-05-29T11:41:50;10.57;;;2.90;;
22129;SDS011;11231;50.746;4.272;2023-05-29T11:44:18;14.57;;;2.92;;
22129;SDS011;11231;50.746;4.272;2023-05-29T11:46:43;12.13;;;2.83;;
22129;SDS011;11231;50.746;4.272;2023-05-29T11:49:09;11.57;;;2.88;;
22129;SDS011;11231;50.746;4.272;2023-05-29T11:51:35;13.07;;;3.45;;
22129;SDS011;11231;50.746;4.272;2023-05-29T11:54:01;10.13;;;2.80;;
22129;SDS011;11231;50.746;4.272;2023-05-29T11:56:28;13.32;;;3.13;;
22129;SDS011;11231;50.746;4.272;2023-05-29T11:58:58;17.77;;;4.63;;
22129;SDS011;11231;50.746;4.272;2023-05-29T12:01:25;14.60;;;3.55;;
22129;SDS011;11231;50.746;4.272;2023-05-29T12:03:52;15.90;;;3.20;;
22129;SDS011;11231;50.746;4.272;2023-05-29T12:06:31;17.77;;;3.45;;
22129;SDS011;11231;50.746;4.272;2023-05-29T12:09:00;11.93;;;2.90;;
22129;SDS011;11231;50.746;4.272;2023-05-29T12:11:27;11.75;;;2.83;;
22129;SDS011;11231;50.746;4.272;2023-05-29T12:14:00;12.95;;;3.38;;
22129;SDS011;11231;50.746;4.272;2023-05-29T12:16:29;14.90;;;3.33;;
22129;SDS011;11231;50.746;4.272;2023-05-29T12:18:59;12.55;;;3.20;;
22129;SDS011;11231;50.746;4.272;2023-05-29T12:21:26;12.20;;;3.13;;
22129;SDS011;11231;50.746;4.272;2023-05-29T12:23:52;10.50;;;3.03;;
22129;SDS011;11231;50.746;4.272;2023-05-29T12:26:22;14.35;;;3.70;;
22129;SDS011;11231;50.746;4.272;2023-05-29T12:28:50;12.00;;;3.45;;
22129;SDS011;11231;50.746;4.272;2023-05-29T12:31:29;9.07;;;2.70;;
22129;SDS011;11231;50.746;4.272;2023-05-29T12:33:59;13.27;;;3.28;;
22129;SDS011;11231;50.746;4.272;2023-05-29T12:36:32;11.75;;;2.85;;
22129;SDS011;11231;50.746;4.272;2023-05-29T12:38:58;13.13;;;2.70;;
22129;SDS011;11231;50.746;4.272;2023-05-29T12:41:29;12.73;;;2.88;;
22129;SDS011;11231;50.746;4.272;2023-05-29T12:43:58;13.07;;;2.93;;
22129;SDS011;11231;50.746;4.272;2023-05-29T12:46:26;14.03;;;3.07;;
22129;SDS011;11231;50.746;4.272;2023-05-29T12:48:56;8.15;;;2.53;;
22129;SDS011;11231;50.746;4.272;2023-05-29T12:51:27;11.67;;;2.77;;
22129;SDS011;11231;50.746;4.272;2023-05-29T12:53:53;8.40;;;2.55;;
22129;SDS011;11231;50.746;4.272;2023-05-29T12:56:21;11.55;;;2.80;;
22129;SDS011;11231;50.746;4.272;2023-05-29T12:58:48;10.53;;;2.70;;
22129;SDS011;11231;50.746;4.272;2023-05-29T13:01:15;16.50;;;2.80;;
22129;SDS011;11231;50.746;4.272;2023-05-29T13:03:41;13.07;;;2.70;;
22129;SDS011;11231;50.746;4.272;2023-05-29T13:06:10;12.43;;;2.90;;
22129;SDS011;11231;50.746;4.272;2023-05-29T13:08:35;11.30;;;2.73;;
22129;SDS011;11231;50.746;4.272;2023-05-29T13:11:01;12.05;;;2.92;;
22129;SDS011;11231;50.746;4.272;2023-05-29T13:13:27;12.00;;;3.07;;
22129;SDS011;11231;50.746;4.272;2023-05-29T13:15:53;10.93;;;2.67;;
22129;SDS011;11231;50.746;4.272;2023-05-29T13:18:19;12.47;;;3.07;;
22129;SDS011;11231;50.746;4.272;2023-05-29T13:20:45;15.50;;;3.07;;
22129;SDS011;11231;50.746;4.272;2023-05-29T13:23:10;12.63;;;2.70;;
22129;SDS011;11231;50.746;4.272;2023-05-29T13:25:36;11.37;;;3.00;;
22129;SDS011;11231;50.746;4.272;2023-05-29T13:28:03;10.07;;;2.57;;
22129;SDS011;11231;50.746;4.272;2023-05-29T13:30:29;10.20;;;2.90;;
22129;SDS011;11231;50.746;4.272;2023-05-29T13:32:55;12.93;;;3.03;;
22129;SDS011;11231;50.746;4.272;2023-05-29T13:35:20;16.23;;;3.43;;
22129;SDS011;11231;50.746;4.272;2023-05-29T13:37:46;12.13;;;2.87;;
22129;SDS011;11231;50.746;4.272;2023-05-29T13:40:12;13.17;;;3.07;;
22129;SDS011;11231;50.746;4.272;2023-05-29T13:42:39;14.23;;;3.20;;
22129;SDS011;11231;50.746;4.272;2023-05-29T13:45:05;14.33;;;3.37;;
22129;SDS011;11231;50.746;4.272;2023-05-29T13:47:32;12.07;;;2.67;;
22129;SDS011;11231;50.746;4.272;2023-05-29T13:49:58;12.77;;;3.17;;
22129;SDS011;11231;50.746;4.272;2023-05-29T13:52:25;9.97;;;3.43;;
22129;SDS011;11231;50.746;4.272;2023-05-29T13:54:51;12.77;;;3.17;;
22129;SDS011;11231;50.746;4.272;2023-05-29T13:57:17;13.17;;;3.03;;
22129;SDS011;11231;50.746;4.272;2023-05-29T13:59:43;13.67;;;3.50;;
22129;SDS011;11231;50.746;4.272;2023-05-29T14:02:08;17.47;;;3.30;;
22129;SDS011;11231;50.746;4.272;2023-05-29T14:04:34;11.33;;;3.27;;
22129;SDS011;11231;50.746;4.272;2023-05-29T14:07:00;10.63;;;3.07;;
22129;SDS011;11231;50.746;4.272;2023-05-29T14:09:26;11.50;;;3.07;;
22129;SDS011;11231;50.746;4.272;2023-05-29T14:11:55;12.33;;;2.80;;
22129;SDS011;11231;50.746;4.272;2023-05-29T14:14:22;12.57;;;3.13;;
22129;SDS011;11231;50.746;4.272;2023-05-29T14:16:48;14.03;;;3.43;;
22129;SDS011;11231;50.746;4.272;2023-05-29T14:19:15;15.60;;;3.23;;
22129;SDS011;11231;50.746;4.272;2023-05-29T14:21:41;9.90;;;3.20;;
22129;SDS011;11231;50.746;4.272;2023-05-29T14:24:06;11.03;;;3.00;;
22129;SDS011;11231;50.746;4.272;2023-05-29T14:26:32;13.20;;;2.90;;
22129;SDS011;11231;50.746;4.272;2023-05-29T14:28:58;8.60;;;2.60;;
22129;SDS011;11231;50.746;4.272;2023-05-29T14:31:24;11.23;;;3.10;;
22129;SDS011;11231;50.746;4.272;2023-05-29T14:33:50;12.80;;;2.73;;
22129;SDS011;11231;50.746;4.272;2023-05-29T14:36:15;13.23;;;3.30;;
22129;SDS011;11231;50.746;4.272;2023-05-29T14:38:41;13.77;;;2.77;;
22129;SDS011;11231;50.746;4.272;2023-05-29T14:41:08;14.13;;;2.67;;
22129;SDS011;11231;50.746;4.272;2023-05-29T14:43:34;12.50;;;3.00;;
22129;SDS011;11231;50.746;4.272;2023-05-29T14:46:00;12.07;;;2.80;;
22129;SDS011;11231;50.746;4.272;2023-05-29T14:48:26;15.30;;;3.37;;
22129;SDS011;11231;50.746;4.272;2023-05-29T14:50:51;12.27;;;2.90;;
22129;SDS011;11231;50.746;4.272;2023-05-29T14:53:17;13.50;;;3.17;;